Time;durP1;ratioP1;P1;durP2;ratioP2;P2;SDS_P1;SDS_P2;PMS_P1;PMS_P2;Temp;Humidity;BMP_temperature;BMP_pressure;BME280_temperature;BME280_humidity;BME280_pressure;Samples;Min_cycle;Max_cycle;Signal;HPM_P1;HPM_P2
2024/03/23 00:00:47;;;;;;;;;4.00;4.00;;;;;;;;5048880;28;9698;-85
2024/03/23 00:03:16;;;;;;;;;2.50;2.50;;;;;;;;5048390;28;9864;-86
2024/03/23 00:05:46;;;;;;;;;4.00;4.00;;;;;;;;5040831;28;9915;-84
2024/03/23 00:08:17;;;;;;;;;2.50;2.50;;;;;;;;5050818;28;10017;-87
2024/03/23 00:10:47;;;;;;;;;3.75;3.00;;;;;;;;5053573;28;9903;-84
2024/03/23 00:13:19;;;;;;;;;3.00;3.00;;;;;;;;5054969;28;9947;-88
2024/03/23 00:15:49;;;;;;;;;3.50;3.50;;;;;;;;5055539;28;9925;-87
2024/03/23 00:18:23;;;;;;;;;4.25;4.25;;;;;;;;5054750;28;10028;-86
2024/03/23 00:20:57;;;;;;;;;5.50;2.75;;;;;;;;5054952;28;9997;-88
2024/03/23 00:23:28;;;;;;;;;4.75;3.25;;;;;;;;5054886;28;10157;-85
2024/03/23 00:25:58;;;;;;;;;3.00;3.00;;;;;;;;5054258;28;10075;-84
2024/03/23 00:28:32;;;;;;;;;9.00;5.00;;;;;;;;5050429;28;10017;-83
2024/03/23 00:31:05;;;;;;;;;5.00;5.00;;;;;;;;5047483;28;10061;-86
2024/03/23 00:33:34;;;;;;;;;5.00;4.25;;;;;;;;5047434;28;10143;-84
2024/03/23 00:36:01;;;;;;;;;4.00;4.00;;;;;;;;5049065;28;10516;-86
2024/03/23 00:38:29;;;;;;;;;6.00;4.25;;;;;;;;5049305;28;10146;-91
2024/03/23 00:40:58;;;;;;;;;5.25;5.25;;;;;;;;5048930;28;10258;-88
2024/03/23 00:43:26;;;;;;;;;7.50;5.00;;;;;;;;5048535;28;10230;-86
2024/03/23 00:45:53;;;;;;;;;2.00;2.00;;;;;;;;5048391;28;10258;-86
2024/03/23 00:48:25;;;;;;;;;6.25;4.00;;;;;;;;5049262;28;10249;-94
2024/03/23 00:50:56;;;;;;;;;3.00;3.00;;;;;;;;5049685;28;10491;-88
2024/03/23 00:53:27;;;;;;;;;5.75;4.00;;;;;;;;5049149;28;10528;-88
2024/03/23 00:55:55;;;;;;;;;6.25;5.00;;;;;;;;5050677;28;10515;-91
2024/03/23 00:58:22;;;;;;;;;8.00;5.50;;;;;;;;5051914;28;10397;-86
2024/03/23 01:00:49;;;;;;;;;5.25;5.25;;;;;;;;5053046;28;10485;-87
2024/03/23 01:03:16;;;;;;;;;9.00;6.00;;;;;;;;5049946;28;10432;-84
2024/03/23 01:05:42;;;;;;;;;5.00;5.00;;;;;;;;5049493;28;10667;-83
2024/03/23 01:08:09;;;;;;;;;5.00;5.00;;;;;;;;5034702;28;10543;-88
2024/03/23 01:10:36;;;;;;;;;4.75;3.25;;;;;;;;5074090;28;10465;-91
2024/03/23 01:13:05;;;;;;;;;9.50;4.50;;;;;;;;5067314;28;10537;-86
2024/03/23 01:15:31;;;;;;;;;11.00;7.75;;;;;;;;5052737;28;10682;-88
2024/03/23 01:17:58;;;;;;;;;6.00;4.75;;;;;;;;5052149;28;10569;-86
2024/03/23 01:20:24;;;;;;;;;7.00;4.00;;;;;;;;5052481;28;10530;-87
2024/03/23 01:22:51;;;;;;;;;5.00;4.00;;;;;;;;5052323;28;10662;-85
2024/03/23 01:25:18;;;;;;;;;6.00;5.75;;;;;;;;5051672;28;10574;-87
2024/03/23 01:27:45;;;;;;;;;8.50;5.25;;;;;;;;5053211;28;10687;-87
2024/03/23 01:30:13;;;;;;;;;7.25;7.25;;;;;;;;5049767;28;10597;-85
2024/03/23 01:32:41;;;;;;;;;11.75;8.25;;;;;;;;5052676;28;10600;-89
2024/03/23 01:35:08;;;;;;;;;10.00;8.50;;;;;;;;5045571;28;10637;-88
2024/03/23 01:37:35;;;;;;;;;10.00;7.50;;;;;;;;5048001;28;10480;-85
2024/03/23 01:40:01;;;;;;;;;7.50;6.25;;;;;;;;5049007;28;10639;-87
2024/03/23 01:42:29;;;;;;;;;4.75;4.75;;;;;;;;5056747;28;11323;-85
2024/03/23 01:44:58;;;;;;;;;5.00;4.25;;;;;;;;5052470;28;10496;-85
2024/03/23 01:47:27;;;;;;;;;8.50;4.50;;;;;;;;5030692;28;10483;-85
2024/03/23 01:49:57;;;;;;;;;5.00;5.00;;;;;;;;5052069;28;10419;-85
2024/03/23 01:52:27;;;;;;;;;8.50;6.25;;;;;;;;5052518;28;10508;-85
2024/03/23 01:54:56;;;;;;;;;6.50;6.50;;;;;;;;5052466;28;10532;-86
2024/03/23 01:57:26;;;;;;;;;9.00;7.25;;;;;;;;5052913;28;10649;-85
2024/03/23 01:59:53;;;;;;;;;11.00;8.00;;;;;;;;5054664;28;10447;-86
2024/03/23 02:02:21;;;;;;;;;4.75;4.75;;;;;;;;5055117;28;10395;-87
2024/03/23 02:04:50;;;;;;;;;6.00;4.25;;;;;;;;5056083;28;11251;-86
2024/03/23 02:07:17;;;;;;;;;5.50;5.50;;;;;;;;5057300;28;10408;-87
2024/03/23 02:09:44;;;;;;;;;9.25;6.50;;;;;;;;5055387;28;10380;-85
2024/03/23 02:12:12;;;;;;;;;9.50;7.50;;;;;;;;5056437;28;10330;-90
2024/03/23 02:14:38;;;;;;;;;6.50;5.75;;;;;;;;5055823;28;10498;-84
2024/03/23 02:17:06;;;;;;;;;6.75;6.75;;;;;;;;5037059;28;10428;-86
2024/03/23 02:19:32;;;;;;;;;10.50;9.50;;;;;;;;5051318;28;10538;-86
2024/03/23 02:22:01;;;;;;;;;5.00;3.25;;;;;;;;5050798;28;10452;-85
2024/03/23 02:24:30;;;;;;;;;9.00;9.00;;;;;;;;5049953;28;10316;-86
2024/03/23 02:26:57;;;;;;;;;5.25;5.25;;;;;;;;5033477;28;10615;-84
2024/03/23 02:29:23;;;;;;;;;11.75;7.25;;;;;;;;5050071;28;10323;-87
2024/03/23 02:31:52;;;;;;;;;8.00;7.25;;;;;;;;5050421;28;10348;-88
2024/03/23 02:34:18;;;;;;;;;7.50;7.25;;;;;;;;5051037;28;10325;-85
2024/03/23 02:36:45;;;;;;;;;6.00;5.25;;;;;;;;5051146;28;10493;-85
2024/03/23 02:39:11;;;;;;;;;8.75;5.75;;;;;;;;5050735;28;10341;-84
2024/03/23 02:41:40;;;;;;;;;10.00;5.25;;;;;;;;5048959;28;10309;-88
2024/03/23 02:44:07;;;;;;;;;9.00;9.00;;;;;;;;5050588;28;10412;-84
2024/03/23 02:46:34;;;;;;;;;5.00;5.00;;;;;;;;5053076;28;10482;-86
2024/03/23 02:49:00;;;;;;;;;9.50;7.50;;;;;;;;5054975;28;10495;-87
2024/03/23 02:51:27;;;;;;;;;6.25;6.25;;;;;;;;5053275;28;10122;-90
2024/03/23 02:53:54;;;;;;;;;8.25;6.00;;;;;;;;5051863;28;10388;-85
2024/03/23 02:56:21;;;;;;;;;12.00;6.25;;;;;;;;5050482;28;10441;-88
2024/03/23 02:58:49;;;;;;;;;11.75;6.75;;;;;;;;5051124;28;10496;-91
2024/03/23 03:01:16;;;;;;;;;8.50;8.00;;;;;;;;5049590;28;10261;-87
2024/03/23 03:03:42;;;;;;;;;5.25;5.25;;;;;;;;5054407;28;10332;-88
2024/03/23 03:06:11;;;;;;;;;7.25;4.00;;;;;;;;5056289;28;10410;-85
2024/03/23 03:08:37;;;;;;;;;8.00;5.75;;;;;;;;5044579;28;10385;-83
2024/03/23 03:11:06;;;;;;;;;4.75;4.75;;;;;;;;5055085;28;10436;-85
2024/03/23 03:13:36;;;;;;;;;7.75;6.00;;;;;;;;5059030;28;10439;-84
2024/03/23 03:16:12;;;;;;;;;8.25;5.00;;;;;;;;5037708;28;10525;-89
2024/03/23 03:18:40;;;;;;;;;7.00;5.50;;;;;;;;5053300;28;10664;-85
2024/03/23 03:21:10;;;;;;;;;4.25;4.25;;;;;;;;5054198;28;10607;-86
2024/03/23 03:23:38;;;;;;;;;4.50;4.25;;;;;;;;5054061;28;10493;-84
2024/03/23 03:26:05;;;;;;;;;9.25;6.00;;;;;;;;5058386;28;10478;-85
2024/03/23 03:28:32;;;;;;;;;4.00;4.00;;;;;;;;5053688;28;10454;-85
2024/03/23 03:31:00;;;;;;;;;8.25;4.25;;;;;;;;5054870;28;10488;-84
2024/03/23 03:33:28;;;;;;;;;3.75;3.75;;;;;;;;5053524;28;10638;-87
2024/03/23 03:35:56;;;;;;;;;3.00;3.00;;;;;;;;5051905;28;10485;-87
2024/03/23 03:38:22;;;;;;;;;4.50;4.50;;;;;;;;5049723;28;10479;-88
2024/03/23 03:40:49;;;;;;;;;4.00;3.00;;;;;;;;5051643;28;10459;-88
2024/03/23 03:43:16;;;;;;;;;7.00;4.75;;;;;;;;5053504;28;11307;-85
2024/03/23 03:45:43;;;;;;;;;8.00;4.00;;;;;;;;5071190;28;10580;-91
2024/03/23 03:48:10;;;;;;;;;2.25;2.00;;;;;;;;5066629;28;10634;-85
2024/03/23 03:50:43;;;;;;;;;2.25;2.25;;;;;;;;5059602;28;10620;-85
2024/03/23 03:53:10;;;;;;;;;6.00;3.00;;;;;;;;5059614;28;10608;-84
2024/03/23 03:55:38;;;;;;;;;2.00;2.00;;;;;;;;5041303;28;10556;-84
2024/03/23 03:58:05;;;;;;;;;5.00;2.25;;;;;;;;5053538;28;10730;-85
2024/03/23 04:00:32;;;;;;;;;3.50;2.25;;;;;;;;5057753;28;10536;-84
2024/03/23 04:03:05;;;;;;;;;4.00;2.00;;;;;;;;5059067;28;10589;-84
2024/03/23 04:05:33;;;;;;;;;0.00;0.00;;;;;;;;5040507;28;10730;-84
2024/03/23 04:08:01;;;;;;;;;2.75;1.75;;;;;;;;5060388;28;11293;-86
2024/03/23 04:10:30;;;;;;;;;3.50;2.00;;;;;;;;5057519;28;10638;-85
2024/03/23 04:12:59;;;;;;;;;2.00;1.50;;;;;;;;5060345;28;11549;-86
2024/03/23 04:15:26;;;;;;;;;8.50;3.50;;;;;;;;5054519;28;10697;-84
2024/03/23 04:17:52;;;;;;;;;2.00;2.00;;;;;;;;5051969;28;10704;-91
2024/03/23 04:20:20;;;;;;;;;1.00;1.00;;;;;;;;5054393;28;10698;-88
2024/03/23 04:22:47;;;;;;;;;2.00;2.00;;;;;;;;5055236;28;10858;-87
2024/03/23 04:25:16;;;;;;;;;3.75;2.00;;;;;;;;5059385;28;10790;-85
2024/03/23 04:27:43;;;;;;;;;2.00;0.00;;;;;;;;5058577;28;10707;-84
2024/03/23 04:30:15;;;;;;;;;6.00;2.00;;;;;;;;5059484;28;10829;-84
2024/03/23 04:32:42;;;;;;;;;5.00;1.50;;;;;;;;5060346;28;11016;-85
2024/03/23 04:35:10;;;;;;;;;2.50;1.00;;;;;;;;5060943;28;10842;-84
2024/03/23 04:37:41;;;;;;;;;7.50;1.75;;;;;;;;5042525;28;10887;-85
2024/03/23 04:40:12;;;;;;;;;3.00;2.00;;;;;;;;5061370;28;10953;-85
2024/03/23 04:42:41;;;;;;;;;1.50;1.00;;;;;;;;5056043;28;10752;-85
2024/03/23 04:45:10;;;;;;;;;2.25;2.00;;;;;;;;5054981;28;10708;-86
2024/03/23 04:47:41;;;;;;;;;1.00;1.00;;;;;;;;5052498;28;10774;-85
2024/03/23 04:50:10;;;;;;;;;2.00;2.00;;;;;;;;5063229;28;10968;-85
2024/03/23 04:52:38;;;;;;;;;2.00;2.00;;;;;;;;5064092;28;10826;-85
2024/03/23 04:55:09;;;;;;;;;1.00;1.00;;;;;;;;5062550;28;11290;-85
2024/03/23 04:57:36;;;;;;;;;3.00;1.25;;;;;;;;5045316;28;10767;-85
2024/03/23 05:00:16;;;;;;;;;4.00;3.00;;;;;;;;5061987;28;10799;-84
2024/03/23 05:02:45;;;;;;;;;1.25;1.00;;;;;;;;5061612;28;10882;-84
2024/03/23 05:05:12;;;;;;;;;1.00;1.00;;;;;;;;5061421;28;11030;-85
2024/03/23 05:07:39;;;;;;;;;2.00;2.00;;;;;;;;5064545;28;11087;-85
2024/03/23 05:10:10;;;;;;;;;2.75;1.50;;;;;;;;5045861;28;11022;-84
2024/03/23 05:12:36;;;;;;;;;1.00;1.00;;;;;;;;5064857;28;11043;-84
2024/03/23 05:15:05;;;;;;;;;4.50;2.00;;;;;;;;5063902;28;10977;-87
2024/03/23 05:17:34;;;;;;;;;2.00;2.00;;;;;;;;5053333;28;10976;-86
2024/03/23 05:20:02;;;;;;;;;4.50;2.00;;;;;;;;5053010;28;11101;-89
2024/03/23 05:22:31;;;;;;;;;6.00;1.75;;;;;;;;5053360;28;11184;-83
2024/03/23 05:24:58;;;;;;;;;3.00;3.00;;;;;;;;5035093;28;11220;-87
2024/03/23 05:27:25;;;;;;;;;2.00;1.75;;;;;;;;5052652;28;11453;-78
2024/03/23 05:29:52;;;;;;;;;0.00;0.00;;;;;;;;5058016;28;11172;-85
2024/03/23 05:32:19;;;;;;;;;2.00;2.00;;;;;;;;5050897;28;10990;-81
2024/03/23 05:34:47;;;;;;;;;6.50;2.50;;;;;;;;5051335;28;11263;-81
2024/03/23 05:37:13;;;;;;;;;1.75;1.25;;;;;;;;5051948;28;11420;-82
2024/03/23 05:39:40;;;;;;;;;4.50;2.25;;;;;;;;5054024;28;11101;-81
2024/03/23 05:42:08;;;;;;;;;3.50;2.00;;;;;;;;5057365;28;11135;-81
2024/03/23 05:44:35;;;;;;;;;7.50;3.25;;;;;;;;5058424;28;11059;-83
2024/03/23 05:47:01;;;;;;;;;2.00;2.00;;;;;;;;5055302;28;11266;-82
2024/03/23 05:49:30;;;;;;;;;2.75;2.25;;;;;;;;5055585;28;11175;-77
2024/03/23 05:52:02;;;;;;;;;2.00;1.00;;;;;;;;5055325;28;11134;-82
2024/03/23 05:54:32;;;;;;;;;1.00;1.00;;;;;;;;5055307;28;11067;-84
2024/03/23 05:57:01;;;;;;;;;4.75;2.50;;;;;;;;5052136;28;11060;-81
2024/03/23 05:59:31;;;;;;;;;2.75;2.50;;;;;;;;5050293;28;11238;-84
2024/03/23 06:01:59;;;;;;;;;3.25;3.00;;;;;;;;5051209;28;11078;-80
2024/03/23 06:04:27;;;;;;;;;2.50;2.50;;;;;;;;5051591;28;11301;-78
2024/03/23 06:06:54;;;;;;;;;3.25;2.00;;;;;;;;5053788;28;11416;-84
2024/03/23 06:09:21;;;;;;;;;2.00;1.00;;;;;;;;5051037;28;11436;-82
2024/03/23 06:11:49;;;;;;;;;9.50;2.75;;;;;;;;5051112;28;11227;-79
2024/03/23 06:14:16;;;;;;;;;3.25;2.50;;;;;;;;5050334;28;11173;-81
2024/03/23 06:16:42;;;;;;;;;2.50;2.50;;;;;;;;5050566;28;11240;-77
2024/03/23 06:19:09;;;;;;;;;2.75;2.75;;;;;;;;5050757;28;11209;-77
2024/03/23 06:21:36;;;;;;;;;2.25;2.25;;;;;;;;5052626;28;11423;-76
2024/03/23 06:24:05;;;;;;;;;3.50;2.75;;;;;;;;5059228;28;11251;-71
2024/03/23 06:26:31;;;;;;;;;3.25;2.75;;;;;;;;5057268;28;12426;-76
2024/03/23 06:28:58;;;;;;;;;5.00;2.00;;;;;;;;5052357;28;11449;-81
2024/03/23 06:31:25;;;;;;;;;2.25;2.00;;;;;;;;5042503;28;11394;-79
2024/03/23 06:34:04;;;;;;;;;6.00;3.00;;;;;;;;5050062;28;11479;-83
2024/03/23 06:36:31;;;;;;;;;3.50;1.75;;;;;;;;5050956;28;11418;-83
2024/03/23 06:39:01;;;;;;;;;2.75;2.75;;;;;;;;5050310;28;11453;-79
2024/03/23 06:41:31;;;;;;;;;2.50;2.50;;;;;;;;5050401;28;11513;-77
2024/03/23 06:44:00;;;;;;;;;3.00;3.00;;;;;;;;5041138;28;11501;-76
2024/03/23 06:46:26;;;;;;;;;9.25;4.00;;;;;;;;5049199;28;11212;-75
2024/03/23 06:48:54;;;;;;;;;2.75;1.25;;;;;;;;5049497;28;11426;-79
2024/03/23 06:51:21;;;;;;;;;3.00;3.00;;;;;;;;5048997;28;11238;-78
2024/03/23 06:53:51;;;;;;;;;2.50;1.50;;;;;;;;5050058;28;11968;-77
2024/03/23 06:56:17;;;;;;;;;2.00;2.00;;;;;;;;5049390;28;11435;-77
2024/03/23 06:58:46;;;;;;;;;3.00;1.25;;;;;;;;5049252;28;11440;-80
2024/03/23 07:01:12;;;;;;;;;1.50;1.00;;;;;;;;5047939;28;11084;-79
2024/03/23 07:03:40;;;;;;;;;3.50;1.75;;;;;;;;5049344;28;11133;-75
2024/03/23 07:06:06;;;;;;;;;0.75;0.75;;;;;;;;5049348;28;11092;-76
2024/03/23 07:08:33;;;;;;;;;2.00;2.00;;;;;;;;5048985;28;10913;-78
2024/03/23 07:10:59;;;;;;;;;3.50;1.50;;;;;;;;5048576;28;11901;-76
2024/03/23 07:13:26;;;;;;;;;2.75;1.75;;;;;;;;5049518;28;11043;-78
2024/03/23 07:15:55;;;;;;;;;2.75;0.50;;;;;;;;5049495;28;11080;-80
2024/03/23 07:18:22;;;;;;;;;7.00;1.25;;;;;;;;5049850;28;10889;-78
2024/03/23 07:20:56;;;;;;;;;4.50;0.25;;;;;;;;5050107;28;10962;-81
2024/03/23 07:23:23;;;;;;;;;2.50;1.00;;;;;;;;5050922;28;11811;-79
2024/03/23 07:26:02;;;;;;;;;1.00;1.00;;;;;;;;5051200;28;10845;-80
2024/03/23 07:28:34;;;;;;;;;1.25;1.25;;;;;;;;5052031;28;10805;-80
2024/03/23 07:31:06;;;;;;;;;1.75;0.75;;;;;;;;5054255;28;10680;-81
2024/03/23 07:33:33;;;;;;;;;1.00;1.00;;;;;;;;5057296;28;10840;-85
2024/03/23 07:36:00;;;;;;;;;2.00;0.75;;;;;;;;5046247;28;10766;-77
2024/03/23 07:38:30;;;;;;;;;0.50;0.50;;;;;;;;5057182;28;10884;-82
2024/03/23 07:41:07;;;;;;;;;1.00;1.00;;;;;;;;5047949;28;10670;-81
2024/03/23 07:43:33;;;;;;;;;1.00;1.00;;;;;;;;5053120;28;11522;-80
2024/03/23 07:46:03;;;;;;;;;1.00;1.00;;;;;;;;5048687;28;10761;-75
2024/03/23 07:48:31;;;;;;;;;1.00;1.00;;;;;;;;5047726;28;10698;-78
2024/03/23 07:51:02;;;;;;;;;4.00;1.00;;;;;;;;5048692;28;10716;-77
2024/03/23 07:53:29;;;;;;;;;3.00;1.75;;;;;;;;5047099;28;10609;-77
2024/03/23 07:55:57;;;;;;;;;2.00;1.00;;;;;;;;5048385;28;10662;-82
2024/03/23 07:58:24;;;;;;;;;2.00;0.00;;;;;;;;5046848;28;10470;-78
2024/03/23 08:00:51;;;;;;;;;0.75;0.75;;;;;;;;5047440;28;10350;-80
2024/03/23 08:03:17;;;;;;;;;0.75;0.75;;;;;;;;5048783;28;10533;-78
2024/03/23 08:05:46;;;;;;;;;2.00;1.25;;;;;;;;5048492;28;10524;-82
2024/03/23 08:08:12;;;;;;;;;2.00;0.00;;;;;;;;5048529;28;10446;-84
2024/03/23 08:10:49;;;;;;;;;1.00;1.00;;;;;;;;5048874;28;10471;-79
2024/03/23 08:13:15;;;;;;;;;2.75;0.25;;;;;;;;5050243;28;10441;-77
2024/03/23 08:15:42;;;;;;;;;4.50;2.00;;;;;;;;5049939;28;10237;-81
2024/03/23 08:18:09;;;;;;;;;1.00;1.00;;;;;;;;5049817;28;10235;-78
2024/03/23 08:20:36;;;;;;;;;1.75;1.00;;;;;;;;5049639;28;10300;-77
2024/03/23 08:23:05;;;;;;;;;0.00;0.00;;;;;;;;5052332;28;10093;-79
2024/03/23 08:25:32;;;;;;;;;0.00;0.00;;;;;;;;5052736;28;10033;-80
2024/03/23 08:28:01;;;;;;;;;0.75;0.75;;;;;;;;5053081;28;10025;-84
2024/03/23 08:30:30;;;;;;;;;0.25;0.25;;;;;;;;5051806;28;9844;-80
2024/03/23 08:32:56;;;;;;;;;1.75;1.00;;;;;;;;5052697;28;10195;-81
2024/03/23 08:35:23;;;;;;;;;1.50;1.25;;;;;;;;5052002;28;10111;-81
2024/03/23 08:37:50;;;;;;;;;1.00;1.00;;;;;;;;5052650;28;10070;-82
2024/03/23 08:40:20;;;;;;;;;4.00;1.00;;;;;;;;5051584;28;10031;-82
2024/03/23 08:42:46;;;;;;;;;2.25;1.00;;;;;;;;5052179;28;10197;-80
2024/03/23 08:45:14;;;;;;;;;1.00;1.00;;;;;;;;5053767;28;10166;-77
2024/03/23 08:47:40;;;;;;;;;2.00;0.50;;;;;;;;5052787;28;10122;-78
2024/03/23 08:50:08;;;;;;;;;0.00;0.00;;;;;;;;5052218;28;10167;-78
2024/03/23 08:52:36;;;;;;;;;1.00;1.00;;;;;;;;5051926;28;10140;-78
2024/03/23 08:55:06;;;;;;;;;2.00;2.00;;;;;;;;5053025;28;9931;-83
2024/03/23 08:57:33;;;;;;;;;1.75;1.00;;;;;;;;5052552;28;10123;-80
2024/03/23 09:00:01;;;;;;;;;2.75;1.00;;;;;;;;5052201;28;9988;-77
2024/03/23 09:02:27;;;;;;;;;2.00;0.50;;;;;;;;5073479;28;9990;-76
2024/03/23 09:04:54;;;;;;;;;0.50;0.50;;;;;;;;5061005;28;10097;-80
2024/03/23 09:07:20;;;;;;;;;1.75;1.75;;;;;;;;5054753;28;10003;-80
2024/03/23 09:09:47;;;;;;;;;2.00;0.50;;;;;;;;5052821;28;10026;-80
2024/03/23 09:12:14;;;;;;;;;0.25;0.25;;;;;;;;5053513;28;10090;-82
2024/03/23 09:14:42;;;;;;;;;0.00;0.00;;;;;;;;5055489;28;9927;-78
2024/03/23 09:17:10;;;;;;;;;0.25;0.25;;;;;;;;5049597;28;9785;-77
2024/03/23 09:19:37;;;;;;;;;0.50;0.00;;;;;;;;5052026;28;9699;-83
2024/03/23 09:22:04;;;;;;;;;2.00;0.00;;;;;;;;5056950;28;9724;-83
2024/03/23 09:24:31;;;;;;;;;1.75;0.00;;;;;;;;5057174;28;9695;-84
2024/03/23 09:27:00;;;;;;;;;1.75;1.00;;;;;;;;5057649;28;9554;-78
2024/03/23 09:29:28;;;;;;;;;3.75;1.25;;;;;;;;5056970;28;9632;-77
2024/03/23 09:31:55;;;;;;;;;1.00;1.00;;;;;;;;5051507;28;9405;-79
2024/03/23 09:34:23;;;;;;;;;0.33;0.33;;;;;;;;5051033;28;9442;-78
2024/03/23 09:36:52;;;;;;;;;5.00;2.00;;;;;;;;5050103;28;9212;-76
2024/03/23 09:39:19;;;;;;;;;2.00;2.00;;;;;;;;5050372;28;9403;-78
2024/03/23 09:41:46;;;;;;;;;1.33;1.33;;;;;;;;5050225;28;9450;-77
2024/03/23 09:44:16;;;;;;;;;1.00;1.00;;;;;;;;5050083;28;9343;-77
2024/03/23 09:46:42;;;;;;;;;1.67;1.67;;;;;;;;5050504;28;9246;-78
2024/03/23 09:49:11;;;;;;;;;3.00;1.00;;;;;;;;5050131;28;9416;-77
2024/03/23 09:51:37;;;;;;;;;2.00;2.00;;;;;;;;5049650;28;9350;-78
2024/03/23 09:54:04;;;;;;;;;1.67;1.67;;;;;;;;5051141;28;9276;-77
2024/03/23 09:56:33;;;;;;;;;4.33;2.00;;;;;;;;5050503;28;9240;-81
2024/03/23 09:59:04;;;;;;;;;1.67;1.67;;;;;;;;5051684;28;9263;-80
2024/03/23 10:01:30;;;;;;;;;1.00;1.00;;;;;;;;5051089;28;9332;-78
2024/03/23 10:04:00;;;;;;;;;2.00;2.00;;;;;;;;5051600;28;9600;-80
2024/03/23 10:06:31;;;;;;;;;2.67;2.00;;;;;;;;5050683;28;9136;-77
2024/03/23 10:09:00;;;;;;;;;2.67;1.00;;;;;;;;5050125;28;9168;-79
2024/03/23 10:11:27;;;;;;;;;0.67;0.67;;;;;;;;5050472;28;9174;-78
2024/03/23 10:13:56;;;;;;;;;0.33;0.33;;;;;;;;5053762;28;8941;-78
2024/03/23 10:16:24;;;;;;;;;2.00;0.00;;;;;;;;5050567;28;8979;-77
2024/03/23 10:18:51;;;;;;;;;1.50;0.75;;;;;;;;5050253;28;9053;-78
2024/03/23 10:21:18;;;;;;;;;0.00;0.00;;;;;;;;5049887;28;8854;-77
2024/03/23 10:23:49;;;;;;;;;3.50;2.00;;;;;;;;5036636;28;9701;-81
2024/03/23 10:26:18;;;;;;;;;0.00;0.00;;;;;;;;5050392;28;8932;-78
2024/03/23 10:28:58;;;;;;;;;2.50;1.00;;;;;;;;5049586;28;8834;-81
2024/03/23 10:31:25;;;;;;;;;2.33;2.33;;;;;;;;5049740;28;8805;-83
2024/03/23 10:33:54;;;;;;;;;1.00;1.00;;;;;;;;5050180;28;8993;-78
2024/03/23 10:36:21;;;;;;;;;1.00;1.00;;;;;;;;5051060;28;8985;-87
2024/03/23 10:38:51;;;;;;;;;2.00;2.00;;;;;;;;5050697;28;8950;-80
2024/03/23 10:41:18;;;;;;;;;3.00;1.67;;;;;;;;5050511;28;9172;-82
2024/03/23 10:43:48;;;;;;;;;1.00;1.00;;;;;;;;5049676;28;9015;-84
2024/03/23 10:46:15;;;;;;;;;1.67;1.67;;;;;;;;5050318;28;8936;-79
2024/03/23 10:48:43;;;;;;;;;2.33;2.33;;;;;;;;5050062;28;9071;-83
2024/03/23 10:51:09;;;;;;;;;0.33;0.33;;;;;;;;5050344;28;9121;-75
2024/03/23 10:53:38;;;;;;;;;2.67;1.00;;;;;;;;5050878;28;9046;-79
2024/03/23 10:56:07;;;;;;;;;1.00;1.00;;;;;;;;5051175;28;9186;-86
2024/03/23 10:58:39;;;;;;;;;1.00;1.00;;;;;;;;5040403;28;9431;-81
2024/03/23 11:01:05;;;;;;;;;1.00;1.00;;;;;;;;5053086;28;9346;-87
2024/03/23 11:03:33;;;;;;;;;1.00;1.00;;;;;;;;5056047;28;9337;-84
2024/03/23 11:06:00;;;;;;;;;0.00;0.00;;;;;;;;5056378;28;9524;-80
2024/03/23 11:08:35;;;;;;;;;0.00;0.00;;;;;;;;5056318;28;9573;-81
2024/03/23 11:11:24;;;;;;;;;0.00;0.00;;;;;;;;5056788;28;9864;-83
2024/03/23 11:13:52;;;;;;;;;0.00;0.00;;;;;;;;5054107;28;10314;-81
2024/03/23 11:16:23;;;;;;;;;1.00;1.00;;;;;;;;5058288;28;10299;-80
2024/03/23 11:18:52;;;;;;;;;2.00;1.00;;;;;;;;5054241;28;10430;-75
2024/03/23 11:21:51;;;;;;;;;1.50;1.00;;;;;;;;5049726;28;10451;-75
2024/03/23 11:24:21;;;;;;;;;0.00;0.00;;;;;;;;5043599;28;10530;-76
2024/03/23 11:26:49;;;;;;;;;0.00;0.00;;;;;;;;5055116;28;10379;-76
2024/03/23 11:29:17;;;;;;;;;0.00;0.00;;;;;;;;5050969;28;10432;-79
2024/03/23 11:31:47;;;;;;;;;0.00;0.00;;;;;;;;5050349;28;10410;-84
2024/03/23 11:34:14;;;;;;;;;0.75;0.00;;;;;;;;5059418;28;10603;-71
2024/03/23 11:36:40;;;;;;;;;0.00;0.00;;;;;;;;5057562;28;10577;-77
2024/03/23 11:39:16;;;;;;;;;0.00;0.00;;;;;;;;5049491;28;10388;-78
2024/03/23 11:41:53;;;;;;;;;0.00;0.00;;;;;;;;5049213;28;10619;-84
2024/03/23 11:44:22;;;;;;;;;0.25;0.00;;;;;;;;5048687;28;10966;-76
2024/03/23 11:46:49;;;;;;;;;0.00;0.00;;;;;;;;5049049;28;10026;-82
2024/03/23 11:49:23;;;;;;;;;0.00;0.00;;;;;;;;5051428;28;9858;-77
2024/03/23 11:51:50;;;;;;;;;0.50;0.00;;;;;;;;5051935;28;9762;-83
2024/03/23 11:54:17;;;;;;;;;0.75;0.00;;;;;;;;5049090;28;9611;-78
2024/03/23 11:56:56;;;;;;;;;0.50;0.50;;;;;;;;5046863;28;10276;-76
2024/03/23 11:59:34;;;;;;;;;0.00;0.00;;;;;;;;5048175;28;9471;-76
2024/03/23 12:02:06;;;;;;;;;1.00;1.00;;;;;;;;5048555;28;9431;-77
2024/03/23 12:04:35;;;;;;;;;1.00;1.00;;;;;;;;5047306;28;9478;-79
2024/03/23 12:07:12;;;;;;;;;1.00;1.00;;;;;;;;5048838;28;9498;-83
2024/03/23 12:09:40;;;;;;;;;2.00;1.00;;;;;;;;5049259;28;9401;-78
2024/03/23 12:12:10;;;;;;;;;1.00;1.00;;;;;;;;5048990;28;9476;-75
2024/03/23 12:14:38;;;;;;;;;0.00;0.00;;;;;;;;5048753;28;9553;-79
2024/03/23 12:17:14;;;;;;;;;1.00;1.00;;;;;;;;5048180;28;9696;-76
2024/03/23 12:19:44;;;;;;;;;1.00;1.00;;;;;;;;5040277;28;9847;-83
2024/03/23 12:22:11;;;;;;;;;0.00;0.00;;;;;;;;5049092;28;9869;-86
2024/03/23 12:24:44;;;;;;;;;0.00;0.00;;;;;;;;5050209;28;9976;-77
2024/03/23 12:27:12;;;;;;;;;0.00;0.00;;;;;;;;5048279;28;9924;-77
2024/03/23 12:29:41;;;;;;;;;0.00;0.00;;;;;;;;5047866;28;10286;-77
2024/03/23 12:32:11;;;;;;;;;0.00;0.00;;;;;;;;5047079;28;10405;-77
2024/03/23 12:34:38;;;;;;;;;0.50;0.00;;;;;;;;5048302;28;10751;-79
2024/03/23 12:37:06;;;;;;;;;0.00;0.00;;;;;;;;5048504;28;11032;-78
2024/03/23 12:39:35;;;;;;;;;1.00;0.00;;;;;;;;5048530;28;11436;-81
2024/03/23 12:42:02;;;;;;;;;0.00;0.00;;;;;;;;5048114;28;12199;-78
2024/03/23 12:44:31;;;;;;;;;0.00;0.00;;;;;;;;5049036;28;11425;-78
2024/03/23 12:46:57;;;;;;;;;1.00;0.00;;;;;;;;5049955;28;11521;-82
2024/03/23 12:49:25;;;;;;;;;0.00;0.00;;;;;;;;5052557;28;11473;-80
2024/03/23 12:51:54;;;;;;;;;0.00;0.00;;;;;;;;5053275;28;11430;-81
2024/03/23 12:54:22;;;;;;;;;0.00;0.00;;;;;;;;5054396;28;11433;-80
2024/03/23 12:56:48;;;;;;;;;0.00;0.00;;;;;;;;5055223;28;11558;-80
2024/03/23 12:59:18;;;;;;;;;0.00;0.00;;;;;;;;5056398;28;11445;-77
2024/03/23 13:01:45;;;;;;;;;1.00;0.00;;;;;;;;5053842;28;10997;-81
2024/03/23 13:04:13;;;;;;;;;1.50;0.00;;;;;;;;5052404;28;10889;-76
2024/03/23 13:06:40;;;;;;;;;0.00;0.00;;;;;;;;5048563;28;11387;-77
2024/03/23 13:09:11;;;;;;;;;0.25;0.25;;;;;;;;5050905;28;11128;-80
2024/03/23 13:11:38;;;;;;;;;1.75;0.00;;;;;;;;5055912;28;10384;-76
2024/03/23 13:14:16;;;;;;;;;0.00;0.00;;;;;;;;5053059;28;10078;-78
2024/03/23 13:16:42;;;;;;;;;0.00;0.00;;;;;;;;5051351;28;9943;-79
2024/03/23 13:19:11;;;;;;;;;0.00;0.00;;;;;;;;5050528;28;9871;-79
2024/03/23 13:21:37;;;;;;;;;1.00;1.00;;;;;;;;5051980;28;10645;-77
2024/03/23 13:24:08;;;;;;;;;2.00;1.00;;;;;;;;5050640;28;10447;-77
2024/03/23 13:26:36;;;;;;;;;0.25;0.25;;;;;;;;5051670;28;9619;-84
2024/03/23 13:29:04;;;;;;;;;0.67;0.67;;;;;;;;5050877;28;9543;-77
2024/03/23 13:31:30;;;;;;;;;1.33;0.00;;;;;;;;5052817;28;9510;-77
2024/03/23 13:33:58;;;;;;;;;0.00;0.00;;;;;;;;5057702;28;9232;-77
2024/03/23 13:36:28;;;;;;;;;0.00;0.00;;;;;;;;5054996;28;9085;-77
2024/03/23 13:38:56;;;;;;;;;0.00;0.00;;;;;;;;5053785;28;8861;-75
2024/03/23 13:41:22;;;;;;;;;0.00;0.00;;;;;;;;5051154;28;8888;-74
2024/03/23 13:43:49;;;;;;;;;1.00;0.00;;;;;;;;5050407;28;8889;-78
2024/03/23 13:46:16;;;;;;;;;1.75;0.00;;;;;;;;5050726;28;8880;-79
2024/03/23 13:48:43;;;;;;;;;0.25;0.00;;;;;;;;5050825;28;8876;-79
2024/03/23 13:51:09;;;;;;;;;3.00;0.00;;;;;;;;5050413;28;8839;-76
2024/03/23 13:53:37;;;;;;;;;0.00;0.00;;;;;;;;5050485;28;8870;-76
2024/03/23 13:56:04;;;;;;;;;2.00;0.00;;;;;;;;5050334;28;8863;-76
2024/03/23 13:58:32;;;;;;;;;0.50;0.50;;;;;;;;5038149;28;8985;-78
2024/03/23 14:01:00;;;;;;;;;0.00;0.00;;;;;;;;5049572;28;8775;-77
2024/03/23 14:03:29;;;;;;;;;1.00;1.00;;;;;;;;5050785;28;8874;-77
2024/03/23 14:06:03;;;;;;;;;0.00;0.00;;;;;;;;5050949;28;8846;-79
2024/03/23 14:08:33;;;;;;;;;0.00;0.00;;;;;;;;5064378;28;8866;-78
2024/03/23 14:11:04;;;;;;;;;0.00;0.00;;;;;;;;5066309;28;8823;-75
2024/03/23 14:13:31;;;;;;;;;0.25;0.25;;;;;;;;5053192;28;8867;-78
2024/03/23 14:16:05;;;;;;;;;4.00;0.00;;;;;;;;5051484;28;8874;-76
2024/03/23 14:18:31;;;;;;;;;0.50;0.00;;;;;;;;5050338;28;8865;-76
2024/03/23 14:21:03;;;;;;;;;0.00;0.00;;;;;;;;5050452;28;8846;-77
2024/03/23 14:23:41;;;;;;;;;0.00;0.00;;;;;;;;5050948;28;8866;-76
2024/03/23 14:26:18;;;;;;;;;1.50;1.00;;;;;;;;5039442;28;8873;-79
2024/03/23 14:28:44;;;;;;;;;0.00;0.00;;;;;;;;5031975;28;8879;-78
2024/03/23 14:31:12;;;;;;;;;1.00;0.50;;;;;;;;5050489;28;8798;-76
2024/03/23 14:33:41;;;;;;;;;0.00;0.00;;;;;;;;5052180;28;8987;-79
2024/03/23 14:36:08;;;;;;;;;1.00;1.00;;;;;;;;5052922;28;8992;-77
2024/03/23 14:38:35;;;;;;;;;2.00;0.00;;;;;;;;5054220;28;8896;-77
2024/03/23 14:41:03;;;;;;;;;0.00;0.00;;;;;;;;5054261;28;8858;-77
2024/03/23 14:43:32;;;;;;;;;2.00;1.00;;;;;;;;5053330;28;8839;-75
2024/03/23 14:46:09;;;;;;;;;1.25;1.25;;;;;;;;5054584;28;8858;-78
2024/03/23 14:48:36;;;;;;;;;2.00;0.00;;;;;;;;5056342;28;8888;-75
2024/03/23 14:51:05;;;;;;;;;0.50;0.25;;;;;;;;5055229;28;8842;-75
2024/03/23 14:53:32;;;;;;;;;0.00;0.00;;;;;;;;5050095;28;8889;-78
2024/03/23 14:56:02;;;;;;;;;1.00;1.00;;;;;;;;5048631;28;8937;-76